Weather at King Abdullah II Air Base

Public forecast

Using degrees Celsius for public forecast. Weather courtesy of forecast.io.

Closest aviation weather report (METAR) to King Abdullah II Air Base

Closest report is Amman Civil (Marka International) Airport, 11.7 nm (21.7 km) W.

2024/05/18 09:00 (retrieved 29 minutes ago)

OJAM 180900Z 33010KT 5000 DU NSC 31/05 Q1020 NOSIG

Closest aviation forecast (TAF) to King Abdullah II Air Base

Closest forecast is Amman Civil (Marka International) Airport, 11.7 nm (21.7 km) W.

2024/05/18 06:00 (retrieved 3 hours ago)

TAF OJAM 180438Z 1806/1912 28008KT 5000 HZ NSC PROB30 1810/1818 29016KT 3000 BLDU